Time;durP1;ratioP1;P1;durP2;ratioP2;P2;SDS_P1;SDS_P2;PMS_P1;PMS_P2;Temp;Humidity;BMP_temperature;BMP_pressure;BME280_temperature;BME280_humidity;BME280_pressure;Samples;Min_cycle;Max_cycle;Signal;HPM_P1;HPM_P2
2022/06/26 00:01:48;;;;;;;3.38;1.50;;;18.70;99.90;;;;;;4667377;30;20340;-85
2022/06/26 00:04:14;;;;;;;4.30;1.60;;;;;;;;;;4651743;30;20037;-84
2022/06/26 00:06:40;;;;;;;5.13;2.10;;;18.60;99.90;;;;;;4651716;30;20056;-85
2022/06/26 00:09:06;;;;;;;4.25;1.40;;;16.00;99.90;;;;;;4651803;30;20687;-84
2022/06/26 00:11:32;;;;;;;6.90;2.00;;;18.60;99.90;;;;;;4667479;30;20340;-85
2022/06/26 00:13:57;;;;;;;4.57;1.63;;;18.40;99.90;;;;;;4667526;30;20450;-84
2022/06/26 00:16:23;;;;;;;5.20;1.70;;;18.50;99.90;;;;;;4651383;30;20148;-84
2022/06/26 00:18:49;;;;;;;6.03;2.17;;;18.50;99.90;;;;;;4651519;30;20034;-84
2022/06/26 00:21:15;;;;;;;3.60;2.05;;;18.40;99.90;;;;;;4667238;30;20030;-84
2022/06/26 00:23:41;;;;;;;3.08;1.73;;;18.30;99.90;;;;;;4653427;30;20586;-83
2022/06/26 00:26:07;;;;;;;4.95;1.65;;;18.30;99.90;;;;;;4670609;30;20215;-85
2022/06/26 00:28:33;;;;;;;5.13;1.65;;;18.20;99.90;;;;;;4654566;30;20064;-83
2022/06/26 00:31:01;;;;;;;5.43;1.73;;;18.10;99.90;;;;;;4670493;30;20848;-85
2022/06/26 00:33:27;;;;;;;6.20;2.10;;;18.20;99.90;;;;;;4670827;30;20041;-85
2022/06/26 00:35:56;;;;;;;4.38;1.67;;;18.10;99.90;;;;;;4670958;30;20290;-85
2022/06/26 00:38:22;;;;;;;5.30;1.95;;;18.10;99.90;;;;;;4654725;30;20050;-85
2022/06/26 00:40:49;;;;;;;3.60;1.80;;;;;;;;;;4655066;30;20452;-84
2022/06/26 00:43:14;;;;;;;5.30;1.77;;;18.00;99.90;;;;;;4670404;30;20061;-85
2022/06/26 00:45:40;;;;;;;3.80;1.85;;;18.00;99.90;;;;;;4654402;30;20026;-82
2022/06/26 00:48:06;;;;;;;9.93;2.45;;;18.00;99.90;;;;;;4654953;30;20037;-84
2022/06/26 00:50:32;;;;;;;5.30;1.67;;;18.00;99.90;;;;;;4670413;30;20123;-84
2022/06/26 00:52:58;;;;;;;5.03;1.45;;;17.80;99.90;;;;;;4654716;30;20133;-84
2022/06/26 00:55:25;;;;;;;3.75;1.80;;;;;;;;;;4670260;30;20641;-83
2022/06/26 00:57:51;;;;;;;4.57;2.10;;;17.80;99.90;;;;;;4670297;30;20049;-83
2022/06/26 01:00:20;;;;;;;4.50;2.03;;;17.80;99.90;;;;;;4670231;30;20515;-84
2022/06/26 01:02:46;;;;;;;4.45;2.15;;;17.80;99.90;;;;;;4669880;30;20122;-84
2022/06/26 01:05:12;;;;;;;6.88;2.30;;;17.80;99.90;;;;;;4670280;30;20104;-84
2022/06/26 01:07:40;;;;;;;5.97;2.22;;;17.70;99.90;;;;;;4654587;30;20038;-84
2022/06/26 01:10:06;;;;;;;5.32;2.28;;;17.70;99.90;;;;;;4670230;30;20112;-85
2022/06/26 01:12:32;;;;;;;6.53;2.25;;;17.70;99.90;;;;;;4669719;30;20037;-84
2022/06/26 01:15:00;;;;;;;5.47;2.08;;;17.60;99.90;;;;;;4669593;30;20038;-84
2022/06/26 01:17:26;;;;;;;6.07;1.98;;;17.60;99.90;;;;;;4669826;30;20427;-84
2022/06/26 01:19:53;;;;;;;8.20;2.50;;;17.60;99.90;;;;;;4669688;30;20212;-85
2022/06/26 01:22:19;;;;;;;6.47;2.20;;;17.50;99.90;;;;;;4669730;30;20115;-83
2022/06/26 01:24:46;;;;;;;4.85;2.25;;;17.50;99.90;;;;;;4654258;30;20050;-83
2022/06/26 01:27:15;;;;;;;7.22;2.55;;;17.50;99.90;;;;;;4669825;30;20030;-84
2022/06/26 01:29:40;;;;;;;5.32;2.10;;;17.40;99.90;;;;;;4669761;30;20038;-85
2022/06/26 01:32:07;;;;;;;8.68;2.17;;;17.40;99.90;;;;;;4669782;30;20386;-84
2022/06/26 01:34:33;;;;;;;6.18;2.00;;;17.40;99.90;;;;;;4669689;30;20503;-85
2022/06/26 01:37:01;;;;;;;6.90;2.00;;;17.40;99.90;;;;;;4654174;30;20038;-83
2022/06/26 01:39:26;;;;;;;6.50;2.95;;;17.30;99.90;;;;;;4669850;30;20160;-86
2022/06/26 01:41:52;;;;;;;5.18;1.85;;;17.30;99.90;;;;;;4669834;30;20038;-84
2022/06/26 01:44:19;;;;;;;6.50;2.10;;;;;;;;;;4669490;30;20058;-84
2022/06/26 01:46:48;;;;;;;7.03;2.17;;;17.30;99.90;;;;;;4654393;30;20045;-81
2022/06/26 01:49:14;;;;;;;7.25;2.15;;;17.30;99.90;;;;;;4670552;30;20030;-84
2022/06/26 01:51:40;;;;;;;7.82;2.22;;;17.30;99.90;;;;;;4654548;30;20464;-83
2022/06/26 01:54:05;;;;;;;7.00;2.42;;;17.30;99.90;;;;;;4669646;30;20045;-83
2022/06/26 01:56:31;;;;;;;9.18;2.65;;;17.20;99.90;;;;;;4669227;30;20034;-84
2022/06/26 01:58:58;;;;;;;5.45;2.00;;;17.20;99.90;;;;;;4669578;30;20339;-86
2022/06/26 02:01:23;;;;;;;6.45;2.22;;;17.20;99.90;;;;;;4669240;30;20109;-86
2022/06/26 02:03:49;;;;;;;7.28;2.08;;;17.20;99.90;;;;;;4668938;30;20041;-85
2022/06/26 02:06:15;;;;;;;4.72;1.75;;;17.20;99.90;;;;;;4653515;30;20037;-85
2022/06/26 02:08:41;;;;;;;3.42;1.83;;;17.20;99.90;;;;;;4669192;30;20033;-84
2022/06/26 02:13:55;;;;;;;5.07;2.30;;;17.20;99.90;;;;;;4668811;30;20093;-83
2022/06/26 02:16:23;;;;;;;4.30;1.88;;;17.10;99.90;;;;;;4668523;30;20533;-85
2022/06/26 02:18:52;;;;;;;8.70;2.35;;;17.00;99.90;;;;;;4653573;30;20033;-85
2022/06/26 02:21:20;;;;;;;5.72;2.25;;;17.00;99.90;;;;;;4668653;30;20118;-86
2022/06/26 02:23:48;;;;;;;6.28;2.60;;;17.00;99.90;;;;;;4652909;30;20116;-84
2022/06/26 02:26:16;;;;;;;3.90;1.83;;;16.90;99.90;;;;;;4668689;30;20244;-84
2022/06/26 02:28:42;;;;;;;4.32;2.05;;;16.90;99.90;;;;;;4653044;30;20065;-84
2022/06/26 02:31:11;;;;;;;6.90;2.42;;;16.90;99.90;;;;;;4668533;30;20292;-86
2022/06/26 02:33:38;;;;;;;6.93;2.05;;;16.80;99.90;;;;;;4668690;30;20530;-84
2022/06/26 02:36:05;;;;;;;4.70;1.92;;;16.80;99.90;;;;;;4668475;30;20344;-82
2022/06/26 02:38:32;;;;;;;4.93;2.47;;;17.20;99.90;;;;;;4668609;30;20470;-84
2022/06/26 02:40:58;;;;;;;6.30;1.88;;;16.70;99.90;;;;;;4653779;30;20056;-84
2022/06/26 02:43:24;;;;;;;7.15;2.38;;;16.70;99.90;;;;;;4669140;30;20057;-83
2022/06/26 02:45:53;;;;;;;4.63;2.20;;;16.70;99.90;;;;;;4668954;30;20034;-84
2022/06/26 02:48:21;;;;;;;4.78;1.98;;;16.60;99.90;;;;;;4668946;30;20148;-84
2022/06/26 02:50:47;;;;;;;8.30;2.80;;;16.60;99.90;;;;;;4668765;30;20096;-85
2022/06/26 02:53:13;;;;;;;5.82;2.38;;;16.60;99.90;;;;;;4652652;30;20507;-83
2022/06/26 02:55:39;;;;;;;8.10;2.45;;;16.50;99.90;;;;;;4668395;30;20049;-85
2022/06/26 02:58:05;;;;;;;5.82;2.15;;;16.50;99.90;;;;;;4668345;30;20034;-86
2022/06/26 03:00:31;;;;;;;5.90;2.10;;;;;;;;;;4668372;30;20042;-83
2022/06/26 03:03:00;;;;;;;8.13;2.50;;;16.50;99.90;;;;;;4652653;30;20312;-86
2022/06/26 03:05:25;;;;;;;9.07;2.25;;;16.50;99.90;;;;;;4668637;30;20048;-83
2022/06/26 03:07:51;;;;;;;4.35;1.98;;;16.50;99.90;;;;;;4652759;30;20567;-85
2022/06/26 03:10:17;;;;;;;6.28;2.17;;;16.50;99.90;;;;;;4668504;30;20038;-85
2022/06/26 03:12:47;;;;;;;4.85;1.90;;;16.40;99.90;;;;;;4668257;30;20064;-84
2022/06/26 03:15:13;;;;;;;7.00;2.50;;;16.50;99.90;;;;;;4668136;30;20463;-86
2022/06/26 03:17:40;;;;;;;4.38;2.38;;;16.40;99.90;;;;;;4652276;30;20121;-84
2022/06/26 03:20:11;;;;;;;7.93;2.00;;;16.40;99.90;;;;;;4652596;30;20120;-84
2022/06/26 03:22:37;;;;;;;7.15;2.03;;;16.40;99.90;;;;;;4652319;30;20042;-85
2022/06/26 03:25:05;;;;;;;6.05;2.30;;;16.30;99.90;;;;;;4667936;30;20522;-84
2022/06/26 03:27:31;;;;;;;7.00;2.60;;;16.30;99.90;;;;;;4667822;30;20339;-85
2022/06/26 03:29:57;;;;;;;3.33;1.70;;;16.30;99.90;;;;;;4667863;30;20365;-85
2022/06/26 03:32:22;;;;;;;9.25;2.63;;;16.30;99.90;;;;;;4652215;30;20041;-85
2022/06/26 03:34:48;;;;;;;6.25;2.78;;;16.30;99.90;;;;;;4667616;30;20686;-86
2022/06/26 03:37:14;;;;;;;6.22;2.25;;;16.20;99.90;;;;;;4651799;30;20438;-86
2022/06/26 03:39:40;;;;;;;5.60;2.20;;;;;;;;;;4667480;30;20254;-88
2022/06/26 03:42:06;;;;;;;5.57;2.10;;;16.30;99.90;;;;;;4667572;30;20037;-86
2022/06/26 03:44:35;;;;;;;5.95;2.47;;;16.30;99.90;;;;;;4667520;30;20050;-87
2022/06/26 03:47:00;;;;;;;6.68;2.25;;;16.20;99.90;;;;;;4667350;30;20034;-85
2022/06/26 03:49:27;;;;;;;6.22;2.38;;;;;;;;;;4667272;30;20042;-86
2022/06/26 03:51:55;;;;;;;9.73;2.63;;;16.20;99.90;;;;;;4651763;30;20042;-85
2022/06/26 03:54:25;;;;;;;4.70;2.25;;;16.20;99.90;;;;;;4667124;30;20046;-82
2022/06/26 03:56:51;;;;;;;6.03;2.53;;;16.20;99.90;;;;;;4652000;30;20381;-85
2022/06/26 03:59:17;;;;;;;7.10;2.20;;;16.30;99.90;;;;;;4667216;30;20332;-84
2022/06/26 04:01:42;;;;;;;12.20;3.30;;;16.20;99.90;;;;;;4651357;30;20363;-83
2022/06/26 04:04:09;;;;;;;5.28;2.15;;;16.30;99.90;;;;;;4667489;30;20030;-86
2022/06/26 04:06:35;;;;;;;5.15;2.53;;;16.20;99.90;;;;;;4651786;30;20044;-85
2022/06/26 04:09:00;;;;;;;7.43;2.72;;;16.30;99.90;;;;;;4667627;30;20038;-86
2022/06/26 04:11:26;;;;;;;6.00;2.97;;;16.20;99.90;;;;;;4667299;30;20030;-84
2022/06/26 04:13:52;;;;;;;6.55;2.40;;;16.20;99.90;;;;;;4667184;30;20211;-85
2022/06/26 04:16:19;;;;;;;6.60;2.95;;;16.20;99.90;;;;;;4667156;30;20072;-84
2022/06/26 04:18:45;;;;;;;7.93;2.50;;;16.30;99.90;;;;;;4651572;30;20121;-86
2022/06/26 04:21:10;;;;;;;5.45;2.50;;;16.30;99.90;;;;;;4667457;30;20117;-85
2022/06/26 04:23:37;;;;;;;5.22;2.53;;;16.30;99.90;;;;;;4667366;30;20529;-85
2022/06/26 04:26:03;;;;;;;5.07;2.13;;;16.40;99.90;;;;;;4651661;30;20037;-84
2022/06/26 04:28:29;;;;;;;8.13;2.72;;;16.50;99.90;;;;;;4667246;30;20030;-86
2022/06/26 04:30:54;;;;;;;5.50;2.20;;;16.60;99.90;;;;;;4667135;30;20468;-85
2022/06/26 04:33:20;;;;;;;7.30;2.45;;;16.60;99.90;;;;;;4667106;30;20534;-84
2022/06/26 04:35:46;;;;;;;5.72;2.33;;;16.70;99.90;;;;;;4667294;30;20253;-84
2022/06/26 04:38:12;;;;;;;6.50;2.55;;;16.80;99.90;;;;;;4667268;30;20038;-86
2022/06/26 04:40:37;;;;;;;5.70;2.55;;;16.80;99.90;;;;;;4651430;30;20026;-84
2022/06/26 04:43:03;;;;;;;7.32;2.80;;;16.90;99.90;;;;;;4667218;30;20121;-83
2022/06/26 04:45:29;;;;;;;4.63;1.92;;;16.80;99.90;;;;;;4666869;30;20523;-83
2022/06/26 04:47:55;;;;;;;7.60;2.35;;;17.10;99.90;;;;;;4667090;30;20499;-85
2022/06/26 04:50:21;;;;;;;7.13;2.67;;;17.20;99.90;;;;;;4667163;30;20057;-85
2022/06/26 04:52:49;;;;;;;5.63;2.03;;;17.40;99.90;;;;;;4651087;30;20387;-86
2022/06/26 04:55:15;;;;;;;5.45;2.25;;;17.40;99.90;;;;;;4667171;30;20030;-84
2022/06/26 04:57:41;;;;;;;10.52;2.35;;;17.60;99.90;;;;;;4666898;30;20037;-85
2022/06/26 05:00:12;;;;;;;5.30;2.33;;;17.70;99.90;;;;;;4666854;30;20323;-85
2022/06/26 05:02:38;;;;;;;5.22;2.08;;;17.80;99.90;;;;;;4651389;30;20314;-85
2022/06/26 05:05:04;;;;;;;12.90;3.40;;;17.90;99.90;;;;;;4666731;30;20104;-85
2022/06/26 05:07:30;;;;;;;10.30;4.05;;;17.90;99.90;;;;;;4667193;30;20100;-87
2022/06/26 05:09:56;;;;;;;8.48;3.35;;;18.00;99.90;;;;;;4668884;30;20580;-83
2022/06/26 05:12:22;;;;;;;12.02;4.75;;;;;;;;;;4654637;30;20121;-85
2022/06/26 05:14:48;;;;;;;17.60;7.45;;;18.20;99.90;;;;;;4654527;30;20066;-85
2022/06/26 05:17:14;;;;;;;9.85;4.13;;;16.60;99.90;;;;;;4670033;30;20072;-84
2022/06/26 05:19:40;;;;;;;8.18;3.38;;;18.30;99.90;;;;;;4654118;30;20487;-84
2022/06/26 05:22:05;;;;;;;6.03;2.80;;;18.40;99.90;;;;;;4669894;30;20045;-85
2022/06/26 05:24:31;;;;;;;6.47;2.95;;;18.50;99.90;;;;;;4669558;30;20046;-83
2022/06/26 05:26:58;;;;;;;5.60;2.45;;;18.70;99.90;;;;;;4669766;30;20720;-82
2022/06/26 05:29:27;;;;;;;8.07;2.50;;;18.70;99.90;;;;;;4653956;30;20034;-85
2022/06/26 05:31:54;;;;;;;5.63;2.85;;;18.80;99.90;;;;;;4669471;30;20102;-84
2022/06/26 05:34:20;;;;;;;3.63;1.67;;;19.00;99.90;;;;;;4654004;30;20069;-84
2022/06/26 05:36:46;;;;;;;6.22;2.25;;;19.10;99.90;;;;;;4654194;30;20439;-84
2022/06/26 05:39:12;;;;;;;5.25;2.20;;;19.20;99.90;;;;;;4653855;30;20053;-85
2022/06/26 05:41:38;;;;;;;5.43;2.10;;;19.30;99.90;;;;;;4670136;30;20045;-84
2022/06/26 05:44:04;;;;;;;9.75;2.30;;;19.40;99.90;;;;;;4671287;30;20050;-84
2022/06/26 05:46:30;;;;;;;8.38;2.75;;;19.50;99.90;;;;;;4671092;30;20427;-84
2022/06/26 05:48:55;;;;;;;5.38;2.72;;;19.60;99.90;;;;;;4655342;30;20049;-84
2022/06/26 05:51:21;;;;;;;5.18;2.40;;;19.70;99.90;;;;;;4669709;30;20033;-85
2022/06/26 05:53:47;;;;;;;7.07;2.50;;;19.80;99.90;;;;;;4669883;30;20351;-86
2022/06/26 05:56:13;;;;;;;5.82;2.25;;;19.80;99.90;;;;;;4669666;30;20541;-83
2022/06/26 05:58:39;;;;;;;6.68;2.70;;;19.80;99.90;;;;;;4669818;30;20034;-84
2022/06/26 06:01:04;;;;;;;6.13;2.28;;;20.00;99.90;;;;;;4654092;30;20155;-83
2022/06/26 06:03:31;;;;;;;5.60;2.70;;;20.10;99.90;;;;;;4653427;30;20254;-87
2022/06/26 06:05:58;;;;;;;5.93;3.00;;;20.20;99.80;;;;;;4669882;30;20070;-84
2022/06/26 06:08:23;;;;;;;8.40;2.95;;;20.40;99.50;;;;;;4669743;30;20244;-84
2022/06/26 06:10:49;;;;;;;9.38;3.40;;;20.50;99.30;;;;;;4669853;30;20033;-85
2022/06/26 06:13:15;;;;;;;5.90;2.72;;;20.60;99.20;;;;;;4654182;30;20117;-85
2022/06/26 06:15:41;;;;;;;6.82;2.50;;;20.70;99.00;;;;;;4669987;30;20516;-83
2022/06/26 06:18:07;;;;;;;6.95;3.03;;;20.80;99.00;;;;;;4669844;30;20033;-83
2022/06/26 06:20:33;;;;;;;6.05;3.28;;;21.00;98.90;;;;;;4668333;30;20029;-85
2022/06/26 06:23:05;;;;;;;8.95;3.65;;;21.00;98.50;;;;;;4669075;30;20054;-86
2022/06/26 06:25:32;;;;;;;7.68;3.28;;;21.10;98.20;;;;;;4669150;30;20405;-84
2022/06/26 06:27:58;;;;;;;9.23;3.60;;;21.20;98.50;;;;;;4669586;30;20780;-84
2022/06/26 06:30:24;;;;;;;8.18;3.15;;;21.10;98.80;;;;;;4668801;30;20466;-83
2022/06/26 06:32:50;;;;;;;7.07;3.15;;;21.10;98.70;;;;;;4668730;30;20029;-83
2022/06/26 06:35:17;;;;;;;5.57;2.80;;;21.20;98.50;;;;;;4653761;30;20041;-85
2022/06/26 06:37:44;;;;;;;7.90;3.05;;;21.40;98.40;;;;;;4669447;30;20577;-84
2022/06/26 06:40:12;;;;;;;9.90;3.40;;;21.60;98.20;;;;;;4669218;30;20054;-85
2022/06/26 06:42:42;;;;;;;10.57;3.30;;;24.00;98.80;;;;;;4669224;30;20531;-86
2022/06/26 06:45:09;;;;;;;7.47;3.30;;;21.80;97.60;;;;;;4669247;30;20312;-85
2022/06/26 06:47:41;;;;;;;7.97;2.45;;;21.80;97.50;;;;;;4653502;30;20136;-86
2022/06/26 06:50:13;;;;;;;6.50;3.00;;;21.90;97.40;;;;;;4654218;30;20491;-85
2022/06/26 06:52:39;;;;;;;6.93;3.70;;;22.60;97.50;;;;;;4669655;30;20033;-84
2022/06/26 06:55:05;;;;;;;8.70;3.60;;;22.10;97.00;;;;;;4653200;30;20429;-85
2022/06/26 06:57:31;;;;;;;7.43;3.40;;;22.20;96.90;;;;;;4652774;30;20085;-85
2022/06/26 06:59:57;;;;;;;7.75;3.35;;;22.30;96.60;;;;;;4653155;30;20506;-84
2022/06/26 07:02:26;;;;;;;11.05;3.78;;;22.40;96.50;;;;;;4652989;30;20038;-86
2022/06/26 07:04:54;;;;;;;9.25;3.42;;;22.50;96.60;;;;;;4668392;30;20316;-85
2022/06/26 07:07:20;;;;;;;9.55;3.63;;;22.50;96.10;;;;;;4652676;30;20057;-85
2022/06/26 07:09:46;;;;;;;9.73;3.72;;;22.50;96.30;;;;;;4668616;30;20475;-85
2022/06/26 07:12:12;;;;;;;7.40;3.28;;;22.60;96.20;;;;;;4668272;30;20034;-85
2022/06/26 07:14:38;;;;;;;9.23;3.63;;;22.70;95.90;;;;;;4652801;30;20157;-85
2022/06/26 07:17:08;;;;;;;10.55;3.22;;;22.90;95.70;;;;;;4673985;25;20068;-86
2022/06/26 07:19:34;;;;;;;12.60;4.00;;;23.00;96.10;;;;;;4652577;30;20038;-85
2022/06/26 07:22:21;;;;;;;7.72;3.17;;;22.90;95.50;;;;;;4652677;30;20038;-86
2022/06/26 07:24:46;;;;;;;7.72;2.67;;;23.10;95.50;;;;;;4652757;30;20027;-85
2022/06/26 07:27:12;;;;;;;7.05;3.17;;;23.20;94.70;;;;;;4653111;30;20495;-85
2022/06/26 07:29:38;;;;;;;7.40;3.28;;;23.40;94.50;;;;;;4652898;30;20084;-83
2022/06/26 07:32:04;;;;;;;8.43;3.05;;;23.50;94.10;;;;;;4652122;30;20034;-83
2022/06/26 07:34:30;;;;;;;8.55;3.50;;;23.70;94.10;;;;;;4652502;30;20104;-82
2022/06/26 07:36:56;;;;;;;8.70;3.38;;;23.80;93.60;;;;;;4652642;30;20038;-82
2022/06/26 07:39:22;;;;;;;11.80;3.58;;;24.00;93.70;;;;;;4675398;30;20049;-84
2022/06/26 07:41:49;;;;;;;7.88;2.67;;;24.10;93.40;;;;;;4675897;30;20498;-84
2022/06/26 07:44:15;;;;;;;8.05;3.70;;;24.30;93.40;;;;;;4660148;30;20049;-83
2022/06/26 07:46:42;;;;;;;8.38;3.40;;;24.40;93.10;;;;;;4659408;30;20046;-84
2022/06/26 07:49:08;;;;;;;9.75;3.80;;;24.30;92.80;;;;;;4674359;30;20525;-84
2022/06/26 07:51:35;;;;;;;11.02;4.07;;;24.60;92.50;;;;;;4654268;30;20538;-84
2022/06/26 07:54:01;;;;;;;6.50;3.20;;;24.70;92.60;;;;;;4653078;30;20619;-84
2022/06/26 07:56:28;;;;;;;10.25;3.15;;;24.90;92.30;;;;;;4668537;30;20034;-84
2022/06/26 07:58:57;;;;;;;9.93;4.10;;;25.10;92.10;;;;;;4668505;30;20040;-84
2022/06/26 08:01:23;;;;;;;10.15;3.72;;;24.90;92.10;;;;;;4668328;30;20101;-85
2022/06/26 08:03:49;;;;;;;7.95;3.67;;;25.20;92.00;;;;;;4652228;30;20038;-85
2022/06/26 08:06:15;;;;;;;9.80;3.53;;;25.40;91.50;;;;;;4668414;30;20410;-82
2022/06/26 08:08:41;;;;;;;9.13;3.67;;;25.50;91.60;;;;;;4652347;30;20065;-82
2022/06/26 08:11:13;;;;;;;9.57;3.80;;;25.40;91.40;;;;;;4652285;30;20038;-84
2022/06/26 08:13:39;;;;;;;7.90;3.72;;;25.50;91.40;;;;;;4667704;30;20296;-84
2022/06/26 08:16:05;;;;;;;13.60;4.55;;;25.70;90.80;;;;;;4667049;30;20109;-85
2022/06/26 08:18:31;;;;;;;7.93;3.35;;;25.80;90.90;;;;;;4652057;30;20038;-84
2022/06/26 08:20:57;;;;;;;9.50;3.83;;;25.90;90.60;;;;;;4651486;30;20614;-85
2022/06/26 08:23:22;;;;;;;9.63;3.45;;;25.90;90.30;;;;;;4666984;30;20046;-83
2022/06/26 08:25:49;;;;;;;10.90;3.72;;;26.00;90.40;;;;;;4667015;30;20515;-85
2022/06/26 08:28:15;;;;;;;8.88;3.65;;;26.10;90.00;;;;;;4650965;30;20049;-83
2022/06/26 08:30:41;;;;;;;10.18;3.20;;;26.00;89.40;;;;;;4651240;30;20601;-84
2022/06/26 08:33:06;;;;;;;8.77;3.78;;;24.70;88.50;;;;;;4651222;30;20100;-84
2022/06/26 08:35:32;;;;;;;8.60;2.95;;;26.20;88.70;;;;;;4667156;30;20507;-84
2022/06/26 08:37:58;;;;;;;6.78;2.97;;;26.40;88.60;;;;;;4651563;30;20113;-83
2022/06/26 08:40:24;;;;;;;8.52;3.50;;;26.50;87.40;;;;;;4667128;30;20113;-84
2022/06/26 08:42:53;;;;;;;6.53;2.63;;;26.70;86.80;;;;;;4667042;30;20038;-85
2022/06/26 08:45:21;;;;;;;8.82;3.10;;;26.80;84.70;;;;;;4669847;30;20347;-84
2022/06/26 08:47:51;;;;;;;4.70;1.90;;;26.90;84.30;;;;;;4654913;30;20077;-85
2022/06/26 08:50:20;;;;;;;5.93;2.03;;;27.00;79.10;;;;;;4671432;30;20060;-82
2022/06/26 08:52:47;;;;;;;7.38;2.58;;;27.10;78.50;;;;;;4671431;30;20030;-84
2022/06/26 08:55:13;;;;;;;6.95;2.08;;;27.10;77.80;;;;;;4671198;30;20423;-85
2022/06/26 08:57:39;;;;;;;4.53;2.20;;;27.10;75.40;;;;;;4670718;30;20662;-83
2022/06/26 09:00:06;;;;;;;5.38;1.88;;;27.10;75.80;;;;;;4655265;30;20437;-83
2022/06/26 09:02:32;;;;;;;5.75;2.15;;;27.30;74.00;;;;;;4655055;30;20615;-84
2022/06/26 09:04:58;;;;;;;4.72;1.95;;;27.50;72.40;;;;;;4670480;30;20472;-82
2022/06/26 09:07:24;;;;;;;3.60;1.45;;;27.60;70.60;;;;;;4670118;30;20034;-84
2022/06/26 09:09:50;;;;;;;5.90;2.22;;;27.60;70.50;;;;;;4654344;30;20038;-85
2022/06/26 09:12:16;;;;;;;6.15;1.95;;;27.60;69.60;;;;;;4669982;30;20034;-84
2022/06/26 09:14:43;;;;;;;5.00;2.10;;;27.80;68.10;;;;;;4670376;30;20331;-84
2022/06/26 09:17:09;;;;;;;3.83;1.63;;;27.90;68.60;;;;;;4669642;30;20050;-83
2022/06/26 09:19:36;;;;;;;6.82;2.20;;;27.90;68.20;;;;;;4669834;30;20038;-84
2022/06/26 09:22:14;;;;;;;6.60;1.90;;;27.80;68.60;;;;;;4670352;30;20120;-85
2022/06/26 09:24:50;;;;;;;4.88;1.60;;;28.00;67.00;;;;;;4670293;30;20339;-84
2022/06/26 09:27:16;;;;;;;5.65;1.65;;;28.20;66.90;;;;;;4669921;30;20027;-83
2022/06/26 09:29:49;;;;;;;1.92;1.10;;;28.40;66.30;;;;;;4669899;30;20065;-84
2022/06/26 09:32:15;;;;;;;;;;;28.60;57.70;;;;;;4654468;30;20034;-84
2022/06/26 09:34:52;;;;;;;5.20;1.73;;;28.70;54.80;;;;;;4653838;30;19950;-84
2022/06/26 09:37:20;;;;;;;2.75;1.20;;;28.80;54.80;;;;;;4669994;30;20031;-84
2022/06/26 09:39:46;;;;;;;4.85;1.50;;;28.90;54.40;;;;;;4669537;30;20110;-84
2022/06/26 09:42:19;;;;;;;3.97;1.10;;;29.10;54.70;;;;;;4653886;30;20046;-84
2022/06/26 09:44:46;;;;;;;;;;;29.30;53.30;;;;;;4669599;30;20045;-85
2022/06/26 09:47:32;;;;;;;3.25;1.13;;;29.30;50.00;;;;;;4669690;30;20558;-85
2022/06/26 09:50:02;;;;;;;2.70;0.98;;;29.20;50.40;;;;;;4669563;30;20412;-86
2022/06/26 09:52:30;;;;;;;3.33;1.17;;;29.10;49.90;;;;;;4654105;30;20102;-84
2022/06/26 09:54:57;;;;;;;3.63;0.90;;;29.20;49.70;;;;;;4669329;30;20061;-84
2022/06/26 09:57:26;;;;;;;5.18;1.13;;;29.30;47.30;;;;;;4653816;30;20049;-83
2022/06/26 09:59:53;;;;;;;2.58;1.02;;;29.20;47.90;;;;;;4653704;30;20301;-85
2022/06/26 10:07:53;;;;;;;4.45;1.30;;;29.20;49.30;;;;;;4669164;30;20040;-85
2022/06/26 10:10:22;;;;;;;1.40;0.65;;;30.60;50.00;;;;;;4668650;30;20296;-84
2022/06/26 10:12:57;;;;;;;0.93;0.75;;;29.40;42.00;;;;;;4653418;30;20133;-84
2022/06/26 10:15:30;;;;;;;2.03;0.90;;;28.20;41.90;;;;;;4653323;30;20104;-83
2022/06/26 10:18:20;;;;;;;1.98;0.75;;;29.80;42.50;;;;;;4668487;30;20133;-84
2022/06/26 10:20:47;;;;;;;2.13;0.98;;;29.90;42.80;;;;;;4668840;30;20320;-83
2022/06/26 10:23:31;;;;;;;3.72;1.33;;;29.90;43.50;;;;;;4668395;30;20331;-83
2022/06/26 10:25:56;;;;;;;;;;;30.20;41.00;;;;;;4653460;30;20340;-84
2022/06/26 10:28:22;;;;;;;1.08;0.50;;;30.30;39.40;;;;;;4652653;30;19935;-84
2022/06/26 10:30:48;;;;;;;3.47;1.33;;;30.30;39.00;;;;;;4669033;30;20088;-83
2022/06/26 10:33:17;;;;;;;2.83;0.63;;;30.30;38.90;;;;;;4668934;30;20029;-84
2022/06/26 10:35:48;;;;;;;3.47;0.90;;;30.80;40.50;;;;;;4669294;30;20113;-84
2022/06/26 10:38:21;;;;;;;1.92;1.00;;;30.60;40.80;;;;;;4668704;30;20026;-84
2022/06/26 10:43:55;;;;;;;1.20;0.70;;;30.70;37.20;;;;;;4668753;30;20113;-84
2022/06/26 10:49:09;;;;;;;5.38;2.22;;;31.10;39.40;;;;;;4678177;25;20263;-82
2022/06/26 10:51:47;;;;;;;2.65;0.85;;;30.90;41.50;;;;;;4614587;31;20077;-85
2022/06/26 10:54:33;;;;;;;2.17;0.90;;;31.10;42.00;;;;;;4600568;31;20043;-85
2022/06/26 10:59:24;;;;;;;3.45;1.13;;;;;;;;;;4679628;25;20073;-82
2022/06/26 11:04:31;;;;;;;5.32;1.65;;;31.40;43.00;;;;;;4725982;25;20066;-85
2022/06/26 11:09:37;;;;;;;2.88;1.20;;;31.40;42.70;;;;;;4672032;25;20096;-85
2022/06/26 11:12:20;;;;;;;3.38;1.38;;;31.30;43.60;;;;;;4653165;30;20045;-86
2022/06/26 11:15:01;;;;;;;3.40;1.15;;;31.70;43.30;;;;;;4668323;30;20693;-85
2022/06/26 11:17:29;;;;;;;2.70;1.20;;;28.70;42.70;;;;;;4652638;30;20034;-86
2022/06/26 11:23:47;;;;;;;3.75;1.30;;;31.70;42.90;;;;;;4668444;30;20092;-85
2022/06/26 11:26:43;;;;;;;4.63;1.80;;;33.20;44.20;;;;;;4647391;30;20046;-85
2022/06/26 11:29:21;;;;;;;3.17;1.10;;;32.40;44.20;;;;;;4625152;25;20126;-86
2022/06/26 11:34:22;;;;;;;4.65;1.52;;;32.50;42.80;;;;;;4666958;25;20562;-84
2022/06/26 11:37:42;;;;;;;8.65;2.10;;;32.60;43.70;;;;;;4652141;30;20161;-86
2022/06/26 11:40:34;;;;;;;4.05;1.55;;;33.20;43.20;;;;;;4628043;25;20068;-85
2022/06/26 11:43:10;;;;;;;4.95;1.35;;;33.90;43.30;;;;;;4658235;25;20025;-85
2022/06/26 11:45:39;;;;;;;3.38;1.40;;;33.50;42.30;;;;;;4668434;30;20054;-84
2022/06/26 11:48:08;;;;;;;2.10;1.20;;;33.70;42.20;;;;;;4652695;30;20069;-83
2022/06/26 11:50:36;;;;;;;4.32;1.63;;;33.90;40.90;;;;;;4652981;30;20038;-83
2022/06/26 11:53:04;;;;;;;5.60;1.50;;;36.00;42.90;;;;;;4668404;30;20236;-84
2022/06/26 11:55:33;;;;;;;4.40;1.30;;;33.80;41.30;;;;;;4668793;30;20030;-83
2022/06/26 11:58:02;;;;;;;4.63;1.60;;;34.10;40.60;;;;;;4652360;30;20030;-83
2022/06/26 12:00:29;;;;;;;4.25;1.58;;;34.20;40.50;;;;;;4667601;30;20108;-84
2022/06/26 12:02:55;;;;;;;3.33;1.30;;;34.30;40.30;;;;;;4651096;30;20379;-84
2022/06/26 12:05:30;;;;;;;3.72;1.30;;;34.20;41.40;;;;;;4651588;30;20675;-84
2022/06/26 12:07:57;;;;;;;5.07;1.67;;;34.70;41.60;;;;;;4651395;30;20129;-84
2022/06/26 12:10:35;;;;;;;2.72;1.30;;;35.00;39.70;;;;;;4667048;30;20473;-83
2022/06/26 12:13:02;;;;;;;4.82;1.23;;;35.50;40.00;;;;;;4666921;30;20511;-82
2022/06/26 12:15:34;;;;;;;2.15;1.08;;;36.10;39.60;;;;;;4667120;30;20607;-84
2022/06/26 12:18:05;;;;;;;5.13;1.33;;;35.90;38.80;;;;;;4651199;30;20472;-83
2022/06/26 12:20:36;;;;;;;2.85;1.13;;;36.10;38.70;;;;;;4651233;30;20331;-83
2022/06/26 12:23:02;;;;;;;3.55;1.38;;;35.80;39.20;;;;;;4657596;30;20076;-83
2022/06/26 12:25:40;;;;;;;5.40;2.20;;;36.00;38.80;;;;;;4687175;30;20022;-84
2022/06/26 12:28:06;;;;;;;5.72;1.70;;;37.80;39.20;;;;;;4687855;30;20050;-82
2022/06/26 12:30:39;;;;;;;3.70;1.30;;;36.10;38.30;;;;;;4687929;30;20098;-83
2022/06/26 12:33:06;;;;;;;3.47;1.20;;;35.90;38.70;;;;;;4688560;30;20022;-82
2022/06/26 12:35:34;;;;;;;2.75;1.25;;;36.30;39.10;;;;;;4688916;30;20081;-82
2022/06/26 12:38:00;;;;;;;3.80;1.63;;;36.60;39.10;;;;;;4668662;30;20338;-84
2022/06/26 12:40:26;;;;;;;2.67;1.38;;;36.80;39.10;;;;;;4667231;30;20137;-85
2022/06/26 12:42:53;;;;;;;3.33;1.30;;;37.30;38.10;;;;;;4650713;30;20255;-84
2022/06/26 12:45:19;;;;;;;3.05;1.45;;;36.90;38.20;;;;;;4667158;30;20073;-83
2022/06/26 12:47:45;;;;;;;2.85;1.38;;;36.90;38.50;;;;;;4651014;30;20499;-83
2022/06/26 12:50:13;;;;;;;4.43;1.30;;;37.20;38.10;;;;;;4666673;30;20892;-83
2022/06/26 12:52:41;;;;;;;4.15;1.33;;;37.40;38.20;;;;;;4667081;30;20053;-83
2022/06/26 12:55:09;;;;;;;4.25;1.20;;;37.60;38.70;;;;;;4666499;30;20328;-83
2022/06/26 12:57:34;;;;;;;3.15;1.67;;;38.80;38.60;;;;;;4666906;30;20260;-83
2022/06/26 13:00:02;;;;;;;3.00;1.25;;;37.90;37.50;;;;;;4667029;30;20148;-83
2022/06/26 13:02:28;;;;;;;2.78;1.25;;;37.60;37.60;;;;;;4650820;30;20053;-85
2022/06/26 13:05:03;;;;;;;3.65;1.30;;;37.70;38.20;;;;;;4666513;30;20030;-84
2022/06/26 13:07:35;;;;;;;4.07;1.60;;;37.50;37.80;;;;;;4651175;30;20128;-83
2022/06/26 13:10:05;;;;;;;;;;;37.80;40.20;;;;;;4651368;30;20038;-87
2022/06/26 13:12:31;;;;;;;3.67;1.35;;;36.10;36.30;;;;;;4666571;30;19919;-85
2022/06/26 13:14:58;;;;;;;3.50;1.40;;;37.80;38.00;;;;;;4651111;30;20062;-84
2022/06/26 13:17:24;;;;;;;4.68;1.40;;;37.60;38.50;;;;;;4666335;30;20217;-85
2022/06/26 13:19:50;;;;;;;5.32;1.40;;;37.40;38.70;;;;;;4666461;30;20035;-83
2022/06/26 13:22:16;;;;;;;2.67;1.50;;;37.30;38.10;;;;;;4666806;30;20034;-81